createdAt,value
2023-03-18T00:01:11.137Z,96149.97
2023-03-18T00:06:12.072Z,96149.47
2023-03-18T00:08:39.528Z,96143.41
2023-03-18T00:13:35.132Z,96145.59
2023-03-18T00:18:42.820Z,96145.28
2023-03-18T00:21:09.842Z,96144.53
2023-03-18T00:23:37.214Z,96150.72
2023-03-18T00:26:03.959Z,96148.94
2023-03-18T00:28:31.681Z,96149.06
2023-03-18T00:31:02.798Z,96143.59
2023-03-18T00:33:29.398Z,96140.88
2023-03-18T00:35:55.967Z,96136.69
2023-03-18T00:38:22.524Z,96136.91
2023-03-18T00:41:04.376Z,96142.13
2023-03-18T00:43:33.919Z,96139.75
2023-03-18T00:46:00.628Z,96142.53
2023-03-18T00:48:27.845Z,96134.56
2023-03-18T00:50:54.472Z,96133.97
2023-03-18T00:53:21.395Z,96136.69
2023-03-18T00:55:47.981Z,96145.59
2023-03-18T00:58:14.544Z,96143.81
2023-03-18T01:00:41.417Z,96139.19
2023-03-18T01:09:44.845Z,96135.63
2023-03-18T01:12:11.970Z,96127.97
2023-03-18T01:14:39.763Z,96130.81
2023-03-18T01:17:07.155Z,96123.91
2023-03-18T01:19:34.243Z,96130.19
2023-03-18T01:24:10.609Z,96123.06
2023-03-18T01:26:37.152Z,96116.34
2023-03-18T01:29:03.859Z,96124.19
2023-03-18T01:31:30.453Z,96125.13
2023-03-18T01:33:57.039Z,96118.53
2023-03-18T01:36:23.598Z,96116.97
2023-03-18T01:38:50.600Z,96112.88
2023-03-18T01:41:17.513Z,96117.81
2023-03-18T01:43:44.122Z,96111.72
2023-03-18T01:46:29.521Z,96115.59
2023-03-18T01:48:56.926Z,96116.63
2023-03-18T01:51:25.073Z,96117.56
2023-03-18T01:53:53.405Z,96115.69
2023-03-18T01:56:20.741Z,96116.63
2023-03-18T01:58:52.912Z,96116.19
2023-03-18T02:01:32.183Z,96112.88
2023-03-18T02:03:59.831Z,96110.16
2023-03-18T02:06:26.752Z,96112.97
2023-03-18T02:08:54.370Z,96126.97
2023-03-18T02:13:50.268Z,96115.47
2023-03-18T02:16:38.532Z,96120.81
2023-03-18T02:19:10.116Z,96114.44
2023-03-18T02:21:48.990Z,96120.72
2023-03-18T02:24:27.351Z,96121.53
2023-03-18T02:27:00.089Z,96123.28
2023-03-18T02:29:28.570Z,96122.94
2023-03-18T02:31:55.535Z,96124.84
2023-03-18T02:34:24.872Z,96121.19
2023-03-18T02:36:51.785Z,96119.41
2023-03-18T02:39:18.400Z,96113.97
2023-03-18T02:41:59.560Z,96118.28
2023-03-18T02:44:26.099Z,96113.13
2023-03-18T02:46:54.210Z,96116.31
2023-03-18T02:49:21.909Z,96115.44
2023-03-18T02:51:49.376Z,96118.28
2023-03-18T02:54:21.374Z,96119.19
2023-03-18T02:56:48.350Z,96119.19
2023-03-18T02:59:15.178Z,96112.06
2023-03-18T03:01:43.055Z,96116.84
2023-03-18T03:04:10.380Z,96110.78
2023-03-18T03:06:37.239Z,96117.59
2023-03-18T03:09:07.678Z,96121.13
2023-03-18T03:11:34.618Z,96117.69
2023-03-18T03:14:01.281Z,96118.31
2023-03-18T03:17:01.219Z,96120.00
2023-03-18T03:19:27.813Z,96126.16
2023-03-18T03:21:54.351Z,96124.50
2023-03-18T03:24:20.990Z,96126.56
2023-03-18T03:26:47.584Z,96129.38
2023-03-18T03:29:14.569Z,96132.09
2023-03-18T03:31:41.068Z,96133.13
2023-03-18T03:34:07.612Z,96133.03
2023-03-18T03:36:34.233Z,96138.16
2023-03-18T03:39:00.775Z,96140.56
2023-03-18T03:44:13.311Z,96144.13
2023-03-18T03:46:40.779Z,96142.66
2023-03-18T03:49:07.354Z,96146.50
2023-03-18T03:51:33.907Z,96145.84
2023-03-18T03:54:00.426Z,96145.22
2023-03-18T03:56:27.267Z,96145.28
2023-03-18T03:58:53.799Z,96147.84
2023-03-18T04:01:20.354Z,96143.34
2023-03-18T04:03:47.316Z,96140.50
2023-03-18T04:06:13.979Z,96135.38
2023-03-18T04:08:41.590Z,96151.47
2023-03-18T04:11:08.123Z,96144.22
2023-03-18T04:13:34.856Z,96146.16
2023-03-18T04:16:01.585Z,96146.94
2023-03-18T04:18:28.218Z,96148.69
2023-03-18T04:20:55.154Z,96140.94
2023-03-18T04:23:21.836Z,96144.13
2023-03-18T04:25:48.352Z,96140.28
2023-03-18T04:28:14.939Z,96147.66
2023-03-18T04:30:41.456Z,96147.59
2023-03-18T04:35:45.357Z,96142.94
2023-03-18T04:38:12.169Z,96145.47
2023-03-18T04:40:38.692Z,96139.50
2023-03-18T04:43:05.243Z,96143.16
2023-03-18T04:45:31.763Z,96142.50
2023-03-18T04:47:58.356Z,96141.47
2023-03-18T04:50:24.997Z,96143.88
2023-03-18T04:52:51.641Z,96139.22
2023-03-18T04:55:20.722Z,96148.72
2023-03-18T04:57:48.483Z,96156.75
2023-03-18T05:00:17.296Z,96160.41
2023-03-18T05:02:44.113Z,96156.22
2023-03-18T05:05:10.805Z,96162.09
2023-03-18T05:07:37.740Z,96160.59
2023-03-18T05:10:04.531Z,96169.16
2023-03-18T05:12:31.672Z,96162.09
2023-03-18T05:14:58.216Z,96174.13
2023-03-18T05:17:25.616Z,96173.09
2023-03-18T05:19:52.221Z,96170.66
2023-03-18T05:22:20.098Z,96168.91
2023-03-18T05:24:46.999Z,96168.50
2023-03-18T05:27:14.623Z,96164.50
2023-03-18T05:29:41.940Z,96170.75
2023-03-18T05:32:09.269Z,96174.31
2023-03-18T05:34:39.455Z,96169.72
2023-03-18T05:37:06.708Z,96171.06
2023-03-18T05:39:33.770Z,96182.03
2023-03-18T05:42:56.172Z,96186.13
2023-03-18T05:45:23.342Z,96191.09
2023-03-18T05:47:50.103Z,96178.97
2023-03-18T05:50:36.773Z,96186.44
2023-03-18T05:53:04.386Z,96185.66
2023-03-18T05:55:32.264Z,96184.53
2023-03-18T05:57:59.189Z,96191.19
2023-03-18T06:00:26.059Z,96185.50
2023-03-18T06:02:52.577Z,96187.91
2023-03-18T06:05:19.189Z,96188.69
2023-03-18T06:09:01.091Z,96188.94
2023-03-18T06:11:28.350Z,96194.13
2023-03-18T06:13:55.214Z,96193.69
2023-03-18T06:16:22.557Z,96188.56
2023-03-18T06:18:49.238Z,96191.66
2023-03-18T06:21:15.840Z,96179.31
2023-03-18T06:23:42.862Z,96181.00
2023-03-18T06:26:09.980Z,96182.53
2023-03-18T06:28:36.719Z,96183.34
2023-03-18T06:31:04.081Z,96185.41
2023-03-18T06:33:30.682Z,96184.09
2023-03-18T06:38:34.842Z,96181.28
2023-03-18T06:41:02.095Z,96186.47
2023-03-18T06:43:28.692Z,96192.53
2023-03-18T06:45:55.272Z,96191.03
2023-03-18T06:48:21.833Z,96186.97
2023-03-18T06:50:48.392Z,96190.91
2023-03-18T06:53:14.888Z,96196.25
2023-03-18T06:55:41.653Z,96199.38
2023-03-18T06:58:08.192Z,96202.66
2023-03-18T07:00:36.108Z,96204.56
2023-03-18T07:03:02.717Z,96205.41
2023-03-18T07:05:29.487Z,96202.03
2023-03-18T07:07:56.878Z,96203.72
2023-03-18T07:13:05.512Z,96208.03
2023-03-18T07:15:33.185Z,96207.22
2023-03-18T07:18:00.683Z,96209.47
2023-03-18T07:20:28.274Z,96210.97
2023-03-18T07:22:54.788Z,96213.22
2023-03-18T07:25:22.909Z,96212.91
2023-03-18T07:27:50.517Z,96210.69
2023-03-18T07:30:18.054Z,96214.81
2023-03-18T07:32:46.058Z,96211.84
2023-03-18T07:35:14.305Z,96212.53
2023-03-18T07:37:41.687Z,96210.38
2023-03-18T07:40:09.407Z,96206.63
2023-03-18T07:42:35.941Z,96209.91
2023-03-18T07:45:02.459Z,96208.91
2023-03-18T07:47:29.005Z,96204.94
2023-03-18T07:49:55.579Z,96202.25
2023-03-18T07:52:22.213Z,96204.00
2023-03-18T07:56:40.556Z,96204.75
2023-03-18T07:59:07.431Z,96206.28
2023-03-18T08:01:33.937Z,96203.03
2023-03-18T08:04:00.581Z,96205.31
2023-03-18T08:06:27.397Z,96195.72
2023-03-18T08:08:54.015Z,96207.38
2023-03-18T08:11:20.696Z,96203.22
2023-03-18T08:13:47.265Z,96203.03
2023-03-18T08:16:13.871Z,96204.50
2023-03-18T08:18:40.443Z,96198.91
2023-03-18T08:21:07.905Z,96203.03
2023-03-18T08:23:34.617Z,96206.94
2023-03-18T08:26:01.314Z,96203.59
2023-03-18T08:28:27.801Z,96206.25
2023-03-18T08:30:58.020Z,96194.81
2023-03-18T08:33:25.263Z,96202.63
2023-03-18T08:35:52.230Z,96212.09
2023-03-18T08:38:19.280Z,96205.19
2023-03-18T08:40:47.511Z,96201.53
2023-03-18T08:43:14.228Z,96195.97
2023-03-18T08:45:40.799Z,96206.22
2023-03-18T08:48:07.805Z,96200.53
2023-03-18T08:50:35.875Z,96190.00
2023-03-18T08:53:03.356Z,96188.78
2023-03-18T08:55:34.652Z,96191.47
2023-03-18T08:58:01.712Z,96189.13
2023-03-18T09:00:28.377Z,96188.19
2023-03-18T09:02:55.092Z,96186.84
2023-03-18T09:05:21.846Z,96194.84
2023-03-18T09:07:48.403Z,96188.81
2023-03-18T09:10:17.012Z,96179.06
2023-03-18T09:12:43.858Z,96179.38
2023-03-18T09:15:11.365Z,96181.38
2023-03-18T09:17:56.622Z,96182.19
2023-03-18T09:20:27.166Z,96176.75
2023-03-18T09:22:53.889Z,96175.78
2023-03-18T09:25:20.566Z,96174.59
2023-03-18T09:27:47.656Z,96174.25
2023-03-18T09:30:15.501Z,96165.94
2023-03-18T09:32:42.523Z,96170.91
2023-03-18T09:35:12.509Z,96166.59
2023-03-18T09:37:40.482Z,96167.56
2023-03-18T09:40:07.891Z,96172.59
2023-03-18T09:42:56.697Z,96169.94
2023-03-18T09:45:47.117Z,96166.88
2023-03-18T09:48:28.902Z,96159.41
2023-03-18T09:50:58.419Z,96159.28
2023-03-18T09:53:35.610Z,96156.91
2023-03-18T09:56:03.218Z,96163.66
2023-03-18T09:58:48.466Z,96152.50
2023-03-18T10:01:15.879Z,96162.59
2023-03-18T10:03:46.831Z,96162.69
2023-03-18T10:06:19.043Z,96161.56
2023-03-18T10:08:54.865Z,96153.78
2023-03-18T10:11:26.565Z,96171.41
2023-03-18T10:14:08.983Z,96159.53
2023-03-18T10:16:44.265Z,96163.53
2023-03-18T10:19:10.797Z,96165.53
2023-03-18T10:21:37.367Z,96163.34
2023-03-18T10:24:17.080Z,96157.63
2023-03-18T10:26:48.962Z,96159.53
2023-03-18T10:29:23.459Z,96172.03
2023-03-18T10:31:57.943Z,96167.44
2023-03-18T10:34:31.285Z,96168.66
2023-03-18T10:37:00.647Z,96162.81
2023-03-18T10:39:28.475Z,96164.09
2023-03-18T10:41:55.905Z,96153.88
2023-03-18T10:44:31.116Z,96153.47
2023-03-18T10:47:10.244Z,96148.94
2023-03-18T10:49:42.817Z,96148.06
2023-03-18T10:52:23.787Z,96153.09
2023-03-18T10:54:52.710Z,96147.78
2023-03-18T10:57:21.206Z,96153.22
2023-03-18T10:59:48.838Z,96151.66
2023-03-18T11:02:20.573Z,96147.59
2023-03-18T11:04:54.533Z,96147.03
2023-03-18T11:07:28.356Z,96150.63
2023-03-18T11:09:55.523Z,96145.28
2023-03-18T11:12:27.313Z,96140.13
2023-03-18T11:14:54.844Z,96142.31
2023-03-18T11:17:22.303Z,96134.88
2023-03-18T11:19:50.473Z,96144.81
2023-03-18T11:22:24.595Z,96130.72
2023-03-18T11:25:02.040Z,96129.50
2023-03-18T11:27:48.312Z,96132.06
2023-03-18T11:30:32.733Z,96126.56
2023-03-18T11:33:13.452Z,96128.81
2023-03-18T11:35:43.723Z,96127.34
2023-03-18T11:38:18.495Z,96120.09
2023-03-18T11:40:46.077Z,96119.28
2023-03-18T11:43:20.155Z,96111.06
2023-03-18T11:45:55.249Z,96116.41
2023-03-18T11:48:24.609Z,96101.03
2023-03-18T11:51:05.760Z,96103.81
2023-03-18T11:53:39.084Z,96097.16
2023-03-18T11:56:14.965Z,96099.94
2023-03-18T11:59:01.064Z,96096.97
2023-03-18T12:01:36.575Z,96093.56
2023-03-18T12:04:05.973Z,96080.13
2023-03-18T12:06:39.087Z,96088.38
2023-03-18T12:09:10.951Z,96090.81
2023-03-18T12:11:38.398Z,96093.31
2023-03-18T12:14:23.453Z,96089.84
2023-03-18T12:16:50.485Z,96093.91
2023-03-18T12:19:35.875Z,96100.28
2023-03-18T12:22:05.373Z,96094.78
2023-03-18T12:24:43.858Z,96097.34
2023-03-18T12:27:25.836Z,96089.97
2023-03-18T12:29:55.361Z,96088.56
2023-03-18T12:32:27.980Z,96086.03
2023-03-18T12:36:20.287Z,96092.66
2023-03-18T12:39:09.839Z,96107.41
2023-03-18T12:41:49.484Z,96097.91
2023-03-18T12:45:44.223Z,96091.47
2023-03-18T12:48:11.134Z,96091.94
2023-03-18T12:50:39.692Z,96091.28
2023-03-18T12:53:25.470Z,96087.50
2023-03-18T12:55:55.472Z,96091.28
2023-03-18T12:58:27.914Z,96095.63
2023-03-18T13:00:59.556Z,96093.84
2023-03-18T13:03:32.646Z,96094.59
2023-03-18T13:06:17.609Z,96096.00
2023-03-18T13:09:02.394Z,96102.63
2023-03-18T13:11:47.279Z,96106.78
2023-03-18T13:14:40.064Z,96096.91
2023-03-18T13:17:12.225Z,96097.91
2023-03-18T13:19:39.602Z,96100.31
2023-03-18T13:22:24.803Z,96098.19
2023-03-18T13:25:27.995Z,96099.47
2023-03-18T13:28:13.102Z,96093.56
2023-03-18T13:33:47.822Z,96096.34
2023-03-18T13:36:28.724Z,96089.44
2023-03-18T13:38:55.610Z,96094.22
2023-03-18T13:41:32.658Z,96090.00
2023-03-18T13:44:06.701Z,96090.56
2023-03-18T13:46:35.092Z,96081.50
2023-03-18T13:49:02.882Z,96078.09
2023-03-18T13:51:29.500Z,96078.19
2023-03-18T13:54:02.125Z,96078.81
2023-03-18T13:56:33.201Z,96081.69
2023-03-18T13:59:06.692Z,96080.88
2023-03-18T14:01:35.713Z,96085.47
2023-03-18T14:04:22.616Z,96086.69
2023-03-18T14:06:56.847Z,96082.97
2023-03-18T14:09:31.721Z,96081.78
2023-03-18T14:12:16.993Z,96084.38
2023-03-18T14:14:56.861Z,96077.63
2023-03-18T14:17:28.961Z,96079.69
2023-03-18T14:19:56.085Z,96084.09
2023-03-18T14:22:25.814Z,96078.66
2023-03-18T14:25:15.245Z,96074.97
2023-03-18T14:28:04.710Z,96083.25
2023-03-18T14:30:34.870Z,96068.81
2023-03-18T14:33:05.884Z,96067.13
2023-03-18T14:35:52.414Z,96071.38
2023-03-18T14:38:20.809Z,96067.13
2023-03-18T14:40:50.413Z,96070.47
2023-03-18T14:43:20.253Z,96064.28
2023-03-18T14:45:49.574Z,96060.50
2023-03-18T14:48:29.448Z,96063.09
2023-03-18T14:50:57.987Z,96059.59
2023-03-18T14:53:31.041Z,96063.84
2023-03-18T14:55:59.035Z,96062.81
2023-03-18T14:58:26.857Z,96071.66
2023-03-18T15:00:54.788Z,96058.13
2023-03-18T15:03:23.291Z,96063.00
2023-03-18T15:05:50.481Z,96060.41
2023-03-18T15:08:19.480Z,96063.19
2023-03-18T15:10:50.469Z,96064.94
2023-03-18T15:13:18.751Z,96058.50
2023-03-18T15:15:45.593Z,96069.28
2023-03-18T15:18:20.844Z,96067.88
2023-03-18T15:20:49.833Z,96063.47
2023-03-18T15:23:17.014Z,96067.03
2023-03-18T15:25:44.619Z,96069.34
2023-03-18T15:28:21.953Z,96068.25
2023-03-18T15:30:56.129Z,96058.13
2023-03-18T15:33:29.479Z,96064.38
2023-03-18T15:35:58.032Z,96059.03
2023-03-18T15:38:29.093Z,96061.50
2023-03-18T15:40:59.998Z,96059.69
2023-03-18T15:43:29.283Z,96058.03
2023-03-18T15:46:00.670Z,96057.19
2023-03-18T15:48:30.955Z,96062.44
2023-03-18T15:51:00.117Z,96064.38
2023-03-18T15:53:28.066Z,96063.44
2023-03-18T15:55:55.666Z,96061.41
2023-03-18T15:58:24.758Z,96070.34
2023-03-18T16:00:52.745Z,96063.25
2023-03-18T16:03:22.288Z,96071.63
2023-03-18T16:05:49.342Z,96064.63
2023-03-18T16:08:17.672Z,96061.03
2023-03-18T16:10:44.921Z,96074.66
2023-03-18T16:13:17.394Z,96066.78
2023-03-18T16:15:44.891Z,96071.84
2023-03-18T16:18:11.585Z,96070.84
2023-03-18T16:20:38.141Z,96074.22
2023-03-18T16:23:05.617Z,96077.25
2023-03-18T16:25:32.324Z,96073.91
2023-03-18T16:27:59.942Z,96084.06
2023-03-18T16:30:30.982Z,96081.28
2023-03-18T16:32:58.178Z,96089.81
2023-03-18T16:35:25.961Z,96092.84
2023-03-18T16:37:53.373Z,96093.19
2023-03-18T16:43:02.512Z,96100.06
2023-03-18T16:45:33.700Z,96102.25
2023-03-18T16:48:06.851Z,96106.41
2023-03-18T16:50:34.921Z,96115.41
2023-03-18T16:53:02.428Z,96110.84
2023-03-18T16:55:28.996Z,96115.47
2023-03-18T16:57:59.698Z,96124.13
2023-03-18T17:00:31.871Z,96125.06
2023-03-18T17:03:01.843Z,96127.34
2023-03-18T17:05:28.792Z,96133.47
2023-03-18T17:07:55.929Z,96132.59
2023-03-18T17:10:24.291Z,96135.22
2023-03-18T17:12:56.650Z,96134.13
2023-03-18T17:15:28.576Z,96142.22
2023-03-18T17:17:58.186Z,96142.63
2023-03-18T17:20:26.769Z,96144.81
2023-03-18T17:25:33.753Z,96151.09
2023-03-18T17:28:04.704Z,96161.72
2023-03-18T17:30:34.258Z,96153.38
2023-03-18T17:33:01.358Z,96163.09
2023-03-18T17:35:28.090Z,96152.53
2023-03-18T17:37:54.845Z,96158.53
2023-03-18T17:40:22.554Z,96163.03
2023-03-18T17:42:51.094Z,96166.13
2023-03-18T17:45:21.254Z,96161.38
2023-03-18T17:47:47.818Z,96159.88
2023-03-18T17:50:18.607Z,96165.78
2023-03-18T17:52:46.655Z,96162.88
2023-03-18T17:55:17.565Z,96164.16
2023-03-18T17:57:44.341Z,96171.16
2023-03-18T18:00:29.084Z,96171.72
2023-03-18T18:05:32.311Z,96170.38
2023-03-18T18:07:58.912Z,96171.25
2023-03-18T18:10:26.055Z,96167.06
2023-03-18T18:12:52.586Z,96169.50
2023-03-18T18:15:20.581Z,96173.66
2023-03-18T18:17:48.511Z,96176.06
2023-03-18T18:20:18.402Z,96180.09
2023-03-18T18:22:48.427Z,96180.81
2023-03-18T18:25:20.063Z,96184.19
2023-03-18T18:27:47.471Z,96182.66
2023-03-18T18:30:18.501Z,96183.91
2023-03-18T18:32:45.815Z,96181.00
2023-03-18T18:35:14.873Z,96182.94
2023-03-18T18:37:41.863Z,96184.91
2023-03-18T18:40:10.676Z,96186.25
2023-03-18T18:42:37.198Z,96184.06
2023-03-18T18:45:04.217Z,96190.44
2023-03-18T18:47:31.545Z,96191.03
2023-03-18T18:49:58.052Z,96199.22
2023-03-18T18:52:24.840Z,96195.03
2023-03-18T18:54:51.359Z,96197.38
2023-03-18T18:57:27.367Z,96197.00
2023-03-18T18:59:54.036Z,96198.09
2023-03-18T19:02:26.457Z,96198.06
2023-03-18T19:04:53.435Z,96200.44
2023-03-18T19:07:21.356Z,96201.25
2023-03-18T19:09:47.932Z,96205.97
2023-03-18T19:12:15.818Z,96203.84
2023-03-18T19:14:42.505Z,96208.59
2023-03-18T19:17:13.638Z,96211.47
2023-03-18T19:19:41.755Z,96202.03
2023-03-18T19:22:18.656Z,96214.66
2023-03-18T19:24:48.321Z,96214.22
2023-03-18T19:27:14.817Z,96217.97
2023-03-18T19:29:42.355Z,96217.41
2023-03-18T19:32:19.241Z,96215.88
2023-03-18T19:34:46.939Z,96210.53
2023-03-18T19:37:17.752Z,96214.00
2023-03-18T19:39:46.519Z,96217.00
2023-03-18T19:42:17.227Z,96212.28
2023-03-18T19:44:45.399Z,96213.47
2023-03-18T19:47:19.620Z,96214.16
2023-03-18T19:49:46.270Z,96231.34
2023-03-18T19:52:17.330Z,96232.69
2023-03-18T19:54:44.254Z,96242.81
2023-03-18T19:57:29.747Z,96239.84
2023-03-18T19:59:57.738Z,96241.88
2023-03-18T20:02:26.063Z,96244.94
2023-03-18T20:04:53.944Z,96238.34
2023-03-18T20:07:21.610Z,96242.91
2023-03-18T20:09:48.551Z,96241.38
2023-03-18T20:12:19.857Z,96235.28
2023-03-18T20:14:46.896Z,96230.50
2023-03-18T20:17:25.880Z,96223.69
2023-03-18T20:19:52.352Z,96236.25
2023-03-18T20:22:23.828Z,96237.13
2023-03-18T20:24:50.535Z,96243.81
2023-03-18T20:27:17.582Z,96244.16
2023-03-18T20:29:45.386Z,96240.50
2023-03-18T20:32:12.007Z,96247.34
2023-03-18T20:34:39.507Z,96246.31
2023-03-18T20:37:07.375Z,96251.25
2023-03-18T20:39:33.859Z,96248.28
2023-03-18T20:42:00.410Z,96253.19
2023-03-18T20:44:27.329Z,96249.66
2023-03-18T20:46:53.915Z,96247.25
2023-03-18T20:49:20.601Z,96252.63
2023-03-18T20:51:47.175Z,96248.44
2023-03-18T20:54:17.871Z,96253.22
2023-03-18T20:56:44.996Z,96250.03
2023-03-18T20:59:11.690Z,96251.81
2023-03-18T21:01:38.885Z,96250.38
2023-03-18T21:04:05.778Z,96244.28
2023-03-18T21:06:32.300Z,96242.72
2023-03-18T21:08:58.921Z,96244.63
2023-03-18T21:14:07.306Z,96241.56
2023-03-18T21:16:37.171Z,96240.69
2023-03-18T21:19:04.220Z,96236.28
2023-03-18T21:21:33.326Z,96232.22
2023-03-18T21:23:59.897Z,96241.06
2023-03-18T21:26:26.740Z,96249.78
2023-03-18T21:28:53.284Z,96246.47
2023-03-18T21:31:28.252Z,96249.06
2023-03-18T21:33:55.451Z,96249.44
2023-03-18T21:36:22.541Z,96239.41
2023-03-18T21:38:49.017Z,96236.75
2023-03-18T21:41:24.334Z,96237.97
2023-03-18T21:43:50.995Z,96232.81
2023-03-18T21:46:18.957Z,96225.06
2023-03-18T21:48:45.712Z,96226.75
2023-03-18T21:51:38.685Z,96226.63
2023-03-18T21:54:06.369Z,96221.59
2023-03-18T21:56:32.909Z,96222.31
2023-03-18T21:58:59.549Z,96221.81
2023-03-18T22:01:27.931Z,96218.59
2023-03-18T22:03:54.548Z,96219.66
2023-03-18T22:06:21.244Z,96220.84
2023-03-18T22:08:48.445Z,96219.41
2023-03-18T22:11:19.415Z,96222.16
2023-03-18T22:13:46.663Z,96218.91
2023-03-18T22:16:14.567Z,96209.59
2023-03-18T22:18:42.168Z,96214.28
2023-03-18T22:21:23.976Z,96207.22
2023-03-18T22:23:51.222Z,96194.94
2023-03-18T22:26:18.501Z,96196.56
2023-03-18T22:28:45.739Z,96206.25
2023-03-18T22:31:23.007Z,96208.06
2023-03-18T22:33:49.845Z,96205.66
2023-03-18T22:36:17.823Z,96197.44
2023-03-18T22:38:44.637Z,96202.09
2023-03-18T22:41:22.036Z,96199.81
2023-03-18T22:43:48.941Z,96196.69
2023-03-18T22:46:15.923Z,96194.66
2023-03-18T22:48:43.363Z,96204.53
2023-03-18T22:51:19.242Z,96204.28
2023-03-18T22:53:48.087Z,96199.16
2023-03-18T22:56:16.512Z,96198.31
2023-03-18T22:58:43.360Z,96206.22
2023-03-18T23:01:14.028Z,96193.19
2023-03-18T23:03:40.684Z,96196.88
2023-03-18T23:06:07.988Z,96196.03
2023-03-18T23:08:34.517Z,96195.44
2023-03-18T23:11:01.886Z,96200.81
2023-03-18T23:16:06.350Z,96199.13
2023-03-18T23:18:33.160Z,96199.13
2023-03-18T23:21:00.160Z,96199.63
2023-03-18T23:23:28.404Z,96197.31
2023-03-18T23:25:54.914Z,96196.63
2023-03-18T23:28:21.531Z,96194.09
2023-03-18T23:30:49.476Z,96201.13
2023-03-18T23:33:16.889Z,96194.09
2023-03-18T23:38:23.843Z,96189.94
2023-03-18T23:40:50.508Z,96192.63
2023-03-18T23:43:17.046Z,96193.38
2023-03-18T23:45:43.675Z,96188.38
2023-03-18T23:48:10.532Z,96180.69
2023-03-18T23:50:37.024Z,96181.66
2023-03-18T23:53:03.594Z,96181.88
2023-03-18T23:55:35.175Z,96185.47
2023-03-18T23:58:02.455Z,96175.19
